Main page
METAR-TAF:

METAR-TAF

Airports :

Benguela Airport

Benguela, Angola

latitude: 12-36-30S, longitude: 13-24-10E, elevation: 36 m

METAR: missing

Time: 07:34 (06:34 UTC)

Forecast

The report was made 7 hours and 49 minutes ago, at 22:45 UTC
Forecast valid from 23 at 00 UTC to 23 at 12 UTC
Wind 5 kt from the Southwest
Visibility: 9000 m
Scattered clouds at a height of 2300 ft
Becoming
from 23 at 08 UTC to 23 at 10 UTC
Wind 10 kt from the West/Northwest
Visibility 10 km or more
Few clouds at a height of 1800 ft

TAF: FNBG 222245Z 2300/2312 22005KT 9000 SCT023 BECMG 2308/2310 29010KT 9999 FEW018

Weather observations and forecasts of more than 4000 airports (METAR and TAF reports).

The available stations are represented by yellow and red dots on the map.

Hover mouse over dot to see the name of the station.

Then click to see weather observations and forecasts.

To change the map : click on the green buttons with a black cross to zoom in, on the green button with a dash to zoom out, or on the green arrows for adjacent maps.


METAR-TAF: